Time;durP1;ratioP1;P1;durP2;ratioP2;P2;SDS_P1;SDS_P2;PMS_P1;PMS_P2;Temp;Humidity;BMP_temperature;BMP_pressure;BME280_temperature;BME280_humidity;BME280_pressure;Samples;Min_cycle;Max_cycle;Signal;HPM_P1;HPM_P2
2022/08/26 00:01:14;;;;;;;3.63;3.42;;;25.70;60.90;;;;;;5114436;28;20040;-70
2022/08/26 00:03:40;;;;;;;3.92;3.58;;;25.70;60.90;;;;;;5114264;28;20032;-70
2022/08/26 00:06:07;;;;;;;3.88;3.58;;;25.70;60.90;;;;;;5114051;28;20043;-70
2022/08/26 00:08:34;;;;;;;3.95;3.65;;;25.70;60.90;;;;;;5114124;28;20039;-70
2022/08/26 00:11:00;;;;;;;3.85;3.60;;;25.70;60.90;;;;;;5115565;28;20485;-69
2022/08/26 00:13:26;;;;;;;3.90;3.10;;;25.70;60.90;;;;;;5114495;28;20107;-70
2022/08/26 00:15:52;;;;;;;3.83;3.53;;;25.60;60.90;;;;;;5115628;28;20039;-70
2022/08/26 00:18:18;;;;;;;4.28;3.97;;;25.70;61.00;;;;;;5114321;28;20376;-70
2022/08/26 00:20:44;;;;;;;4.75;4.32;;;25.60;60.90;;;;;;5114203;28;20130;-70
2022/08/26 00:23:10;;;;;;;4.00;3.70;;;25.70;61.10;;;;;;5114359;28;20488;-70
2022/08/26 00:25:36;;;;;;;3.35;3.15;;;25.60;60.90;;;;;;5114008;28;20130;-70
2022/08/26 00:28:04;;;;;;;4.00;3.70;;;25.70;61.00;;;;;;5113896;28;20032;-70
2022/08/26 00:30:31;;;;;;;4.75;3.72;;;25.60;60.90;;;;;;5114030;28;20036;-70
2022/08/26 00:32:57;;;;;;;4.57;3.63;;;25.60;61.00;;;;;;5113762;28;20046;-70
2022/08/26 00:35:25;;;;;;;4.20;3.80;;;25.60;61.00;;;;;;5113739;28;20054;-70
2022/08/26 00:37:51;;;;;;;4.18;3.88;;;25.60;61.00;;;;;;5113243;28;20039;-70
2022/08/26 00:40:21;;;;;;;4.50;4.13;;;25.60;61.00;;;;;;5113533;28;20055;-70
2022/08/26 00:42:47;;;;;;;4.38;4.05;;;25.60;61.10;;;;;;5115051;28;20418;-70
2022/08/26 00:45:14;;;;;;;4.38;4.07;;;25.60;61.10;;;;;;5113564;28;20047;-70
2022/08/26 00:47:45;;;;;;;4.10;3.70;;;25.60;61.10;;;;;;5113544;28;20549;-70
2022/08/26 00:50:17;;;;;;;4.57;4.18;;;25.60;61.20;;;;;;5114894;28;20040;-69
2022/08/26 00:52:44;;;;;;;4.55;4.18;;;25.60;61.20;;;;;;5096689;28;20040;-70
2022/08/26 00:55:32;;;;;;;5.18;4.78;;;25.60;61.20;;;;;;5113368;28;20039;-70
2022/08/26 00:57:59;;;;;;;3.80;3.50;;;25.60;61.20;;;;;;5113221;28;20048;-69
2022/08/26 01:00:27;;;;;;;3.90;3.60;;;25.60;61.30;;;;;;5113240;28;20047;-70
2022/08/26 01:02:54;;;;;;;3.67;3.38;;;25.60;61.30;;;;;;5113751;28;20433;-70
2022/08/26 01:05:21;;;;;;;5.30;4.82;;;25.50;61.30;;;;;;5112933;28;20052;-70
2022/08/26 01:07:46;;;;;;;3.42;3.22;;;25.50;61.30;;;;;;5113354;28;20039;-70
2022/08/26 01:10:18;;;;;;;4.20;3.83;;;25.60;61.40;;;;;;5112964;28;20372;-70
2022/08/26 01:12:47;;;;;;;4.45;4.07;;;25.50;61.40;;;;;;5113282;28;20051;-70
2022/08/26 01:15:21;;;;;;;4.13;3.80;;;25.50;61.40;;;;;;5113071;28;20123;-69
2022/08/26 01:17:48;;;;;;;4.30;4.00;;;25.50;61.40;;;;;;5112875;28;20055;-69
2022/08/26 01:23:03;;;;;;;3.90;3.60;;;25.50;61.40;;;;;;5089358;28;20438;-69
2022/08/26 01:25:32;;;;;;;4.38;4.00;;;25.50;61.50;;;;;;5069636;28;20036;-69
2022/08/26 01:28:01;;;;;;;3.83;3.50;;;25.50;61.60;;;;;;5051464;28;20041;-70
2022/08/26 01:30:30;;;;;;;3.45;3.22;;;25.50;61.60;;;;;;5051536;28;20094;-69
2022/08/26 01:32:58;;;;;;;3.97;3.67;;;25.50;61.60;;;;;;5051160;28;20033;-69
2022/08/26 01:35:23;;;;;;;4.03;3.63;;;25.50;61.70;;;;;;5051256;28;20041;-69
2022/08/26 01:37:52;;;;;;;4.32;3.95;;;25.50;61.70;;;;;;5051172;28;20075;-69
2022/08/26 01:40:24;;;;;;;4.22;3.83;;;25.50;61.70;;;;;;5051381;28;20447;-69
2022/08/26 01:42:50;;;;;;;3.92;3.63;;;25.50;61.70;;;;;;5050998;28;20037;-69
2022/08/26 01:45:20;;;;;;;4.32;4.03;;;25.50;61.80;;;;;;5050918;28;20037;-69
2022/08/26 01:47:48;;;;;;;3.83;3.53;;;25.50;61.90;;;;;;5051217;28;20362;-69
2022/08/26 01:50:22;;;;;;;4.40;4.07;;;25.50;61.90;;;;;;5051170;28;20166;-69
2022/08/26 01:52:49;;;;;;;4.53;4.13;;;25.40;61.80;;;;;;5050827;28;20106;-69
2022/08/26 01:55:17;;;;;;;4.20;3.90;;;25.50;61.90;;;;;;5051170;28;20052;-69
2022/08/26 01:57:44;;;;;;;4.03;3.45;;;25.50;62.00;;;;;;5050869;28;20392;-69
2022/08/26 02:00:13;;;;;;;4.40;4.10;;;25.50;62.00;;;;;;5051007;28;20051;-69
2022/08/26 02:02:42;;;;;;;4.78;4.35;;;25.40;61.90;;;;;;5050534;28;20044;-69
2022/08/26 02:05:13;;;;;;;4.30;3.92;;;25.40;62.00;;;;;;5068846;28;20427;-69
2022/08/26 02:07:39;;;;;;;4.13;3.72;;;25.40;62.00;;;;;;5050710;28;20040;-69
2022/08/26 02:10:06;;;;;;;4.30;3.90;;;25.40;62.00;;;;;;5050654;28;20032;-69
2022/08/26 02:12:32;;;;;;;4.32;3.78;;;25.40;62.00;;;;;;5068200;28;20041;-69
2022/08/26 02:15:03;;;;;;;4.07;3.70;;;25.40;62.10;;;;;;5050686;28;20069;-69
2022/08/26 02:17:38;;;;;;;4.45;4.05;;;25.40;62.10;;;;;;5050234;28;20072;-69
2022/08/26 02:20:05;;;;;;;4.07;3.78;;;25.40;62.20;;;;;;5050295;28;20049;-69
2022/08/26 02:22:31;;;;;;;4.63;4.22;;;25.40;62.20;;;;;;5067821;28;20436;-69
2022/08/26 02:25:00;;;;;;;4.63;4.25;;;25.40;62.20;;;;;;5050057;28;20500;-69
2022/08/26 02:27:29;;;;;;;4.57;4.13;;;25.40;62.20;;;;;;5050118;28;20041;-69
2022/08/26 02:30:01;;;;;;;3.95;3.72;;;25.40;62.20;;;;;;5049792;28;20040;-69
2022/08/26 02:32:27;;;;;;;4.45;4.05;;;25.40;62.30;;;;;;5046660;28;20481;-69
2022/08/26 02:34:53;;;;;;;4.70;4.30;;;25.40;62.30;;;;;;5037007;28;20045;-69
2022/08/26 02:37:18;;;;;;;4.70;4.30;;;25.40;62.30;;;;;;5054610;28;20045;-69
2022/08/26 02:39:44;;;;;;;5.20;4.80;;;25.40;62.40;;;;;;5037044;28;20037;-69
2022/08/26 02:42:10;;;;;;;4.22;3.92;;;25.30;62.20;;;;;;5036576;28;20635;-69
2022/08/26 02:44:36;;;;;;;4.13;3.83;;;25.30;62.20;;;;;;5036663;28;20120;-69
2022/08/26 02:47:02;;;;;;;5.30;3.97;;;25.30;62.30;;;;;;5036728;28;20183;-69
2022/08/26 02:49:29;;;;;;;4.47;4.07;;;25.30;62.30;;;;;;5036459;28;20492;-69
2022/08/26 02:51:55;;;;;;;4.20;3.63;;;25.30;62.30;;;;;;5036422;28;20171;-69
2022/08/26 02:54:21;;;;;;;4.47;4.07;;;25.30;62.40;;;;;;5036266;28;20052;-69
2022/08/26 02:56:49;;;;;;;5.68;4.35;;;25.30;62.40;;;;;;5036547;28;20044;-69
2022/08/26 02:59:15;;;;;;;4.47;4.07;;;25.30;62.40;;;;;;5036228;28;20037;-69
2022/08/26 03:01:41;;;;;;;4.53;4.13;;;25.30;62.40;;;;;;5036178;28;20052;-69
2022/08/26 03:04:10;;;;;;;4.45;4.15;;;25.30;62.40;;;;;;5053957;28;20052;-69
2022/08/26 03:06:36;;;;;;;4.82;4.43;;;25.30;62.40;;;;;;5032759;28;20045;-69
2022/08/26 03:09:02;;;;;;;4.93;4.13;;;25.30;62.40;;;;;;5033195;28;20049;-69
2022/08/26 03:11:29;;;;;;;3.97;3.67;;;25.30;62.40;;;;;;5016220;28;20046;-69
2022/08/26 03:13:54;;;;;;;4.78;4.25;;;25.30;62.50;;;;;;5033985;28;20387;-69
2022/08/26 03:16:20;;;;;;;4.30;3.90;;;25.30;62.40;;;;;;5016061;28;20045;-69
2022/08/26 03:18:45;;;;;;;4.53;4.13;;;25.30;62.50;;;;;;5016350;28;20084;-69
2022/08/26 03:21:15;;;;;;;5.45;4.13;;;25.30;62.50;;;;;;5010456;28;20492;-69
2022/08/26 03:23:42;;;;;;;4.70;4.25;;;25.30;62.50;;;;;;5014049;28;20045;-69
2022/08/26 03:26:10;;;;;;;4.45;4.10;;;25.30;62.50;;;;;;5012854;28;20037;-69
2022/08/26 03:30:38;;;;;;;5.18;3.80;;;25.30;62.50;;;;;;5013866;28;20041;-69
2022/08/26 03:31:21;;;;;;;4.35;3.92;;;25.20;62.40;;;;;;4996224;28;20490;-69
2022/08/26 03:33:47;;;;;;;3.97;3.63;;;25.20;62.50;;;;;;4996221;28;20073;-69
2022/08/26 03:36:12;;;;;;;4.97;4.60;;;25.20;62.50;;;;;;5013774;28;20040;-69
2022/08/26 03:38:38;;;;;;;3.88;3.58;;;25.20;62.40;;;;;;4996171;28;20099;-69
2022/08/26 03:41:04;;;;;;;4.25;3.95;;;25.20;62.50;;;;;;4995965;28;20049;-69
2022/08/26 03:43:29;;;;;;;4.25;3.95;;;25.20;62.50;;;;;;5013537;28;20092;-69
2022/08/26 03:45:55;;;;;;;4.07;3.78;;;25.20;62.50;;;;;;4995131;28;20038;-69
2022/08/26 03:48:20;;;;;;;4.63;4.22;;;25.20;62.50;;;;;;4996268;28;20107;-69
2022/08/26 03:50:46;;;;;;;3.90;3.60;;;25.20;62.50;;;;;;4996025;28;20038;-69
2022/08/26 03:53:12;;;;;;;4.10;3.70;;;25.20;62.50;;;;;;4996079;28;20247;-70
2022/08/26 03:55:37;;;;;;;4.25;3.85;;;25.20;62.50;;;;;;4995884;28;20509;-69
2022/08/26 03:58:03;;;;;;;4.50;4.10;;;25.20;62.50;;;;;;4995663;28;20049;-69
2022/08/26 04:00:29;;;;;;;4.28;3.92;;;25.20;62.50;;;;;;4995572;28;20048;-69
2022/08/26 04:02:54;;;;;;;4.13;3.83;;;25.20;62.60;;;;;;4995439;28;20042;-69
2022/08/26 04:05:22;;;;;;;3.97;3.67;;;25.20;62.50;;;;;;5013223;28;20041;-69
2022/08/26 04:07:47;;;;;;;4.28;3.88;;;25.20;62.60;;;;;;5012582;28;20048;-70
2022/08/26 04:10:16;;;;;;;4.40;4.00;;;25.20;62.60;;;;;;5015372;28;20050;-69
2022/08/26 04:12:43;;;;;;;3.72;3.42;;;25.20;62.60;;;;;;5015021;28;20045;-69
2022/08/26 04:15:12;;;;;;;5.03;3.83;;;25.20;62.60;;;;;;5032814;28;20316;-69
2022/08/26 04:17:37;;;;;;;4.07;3.77;;;25.10;62.50;;;;;;5015004;28;20041;-69
2022/08/26 04:20:05;;;;;;;3.88;3.50;;;25.20;62.60;;;;;;5015023;28;20060;-69
2022/08/26 04:22:31;;;;;;;4.38;3.97;;;25.20;62.70;;;;;;5030842;28;20085;-69
2022/08/26 04:24:57;;;;;;;4.05;3.67;;;25.20;62.60;;;;;;5034770;28;20139;-69
2022/08/26 04:27:23;;;;;;;4.00;3.63;;;25.20;62.60;;;;;;5034844;28;20083;-69
2022/08/26 04:29:48;;;;;;;4.30;3.90;;;25.10;62.60;;;;;;5034496;28;20051;-69
2022/08/26 04:32:14;;;;;;;4.20;3.78;;;25.10;62.50;;;;;;5034563;28;20079;-70
2022/08/26 04:34:40;;;;;;;5.38;3.63;;;25.10;62.60;;;;;;5052376;28;20037;-73
2022/08/26 04:37:06;;;;;;;4.20;3.90;;;25.20;62.70;;;;;;5034444;28;20107;-69
2022/08/26 04:39:32;;;;;;;4.20;3.80;;;25.10;62.60;;;;;;5052284;28;20090;-69
2022/08/26 04:41:59;;;;;;;4.22;3.90;;;25.10;62.60;;;;;;5034383;28;20045;-69
2022/08/26 04:44:27;;;;;;;4.10;3.80;;;25.10;62.60;;;;;;5034465;28;20045;-70
2022/08/26 04:46:53;;;;;;;4.10;3.78;;;25.10;62.60;;;;;;5034595;28;20033;-71
2022/08/26 04:49:19;;;;;;;3.90;3.55;;;25.10;62.60;;;;;;5034159;28;20534;-69
2022/08/26 04:51:47;;;;;;;3.90;3.70;;;25.10;62.60;;;;;;5034549;28;20033;-69
2022/08/26 04:54:14;;;;;;;4.15;3.78;;;25.10;62.70;;;;;;5034092;28;20071;-69
2022/08/26 04:56:42;;;;;;;3.97;3.45;;;25.10;62.60;;;;;;5034041;28;20041;-69
2022/08/26 04:59:14;;;;;;;4.38;4.00;;;25.10;62.70;;;;;;5051898;28;20488;-69
2022/08/26 05:01:50;;;;;;;3.85;3.38;;;25.10;62.70;;;;;;5051953;28;20071;-69
2022/08/26 05:04:18;;;;;;;3.83;3.60;;;25.10;62.70;;;;;;5051841;28;20037;-69
2022/08/26 05:06:44;;;;;;;3.97;3.67;;;25.10;62.70;;;;;;5030896;28;20318;-70
2022/08/26 05:09:11;;;;;;;4.28;3.97;;;25.10;62.70;;;;;;5014483;28;20045;-69
2022/08/26 05:11:37;;;;;;;3.80;3.50;;;25.10;62.70;;;;;;5014395;28;20048;-69
2022/08/26 05:14:03;;;;;;;4.22;3.85;;;25.10;62.70;;;;;;5014090;28;20464;-69
2022/08/26 05:16:30;;;;;;;4.00;3.70;;;25.10;62.70;;;;;;5014129;28;20048;-69
2022/08/26 05:18:56;;;;;;;4.00;3.67;;;25.10;62.70;;;;;;5014250;28;20444;-73
2022/08/26 05:21:24;;;;;;;4.20;3.80;;;25.10;62.70;;;;;;5013924;28;20064;-69
2022/08/26 05:23:50;;;;;;;4.07;3.50;;;25.10;62.70;;;;;;5014303;28;20041;-69
2022/08/26 05:26:17;;;;;;;3.45;3.15;;;25.10;62.70;;;;;;5031825;28;20042;-69
2022/08/26 05:28:44;;;;;;;4.75;3.47;;;25.10;62.70;;;;;;5014196;28;20046;-69
2022/08/26 05:31:13;;;;;;;3.35;2.92;;;25.10;62.70;;;;;;5031927;28;20045;-69
2022/08/26 05:33:39;;;;;;;4.32;3.22;;;25.10;62.70;;;;;;4997604;28;20112;-69
2022/08/26 05:36:08;;;;;;;4.18;3.78;;;25.10;62.70;;;;;;5013941;28;20136;-69
2022/08/26 05:38:34;;;;;;;5.47;2.90;;;25.10;62.70;;;;;;5014246;28;20120;-69
2022/08/26 05:40:59;;;;;;;4.13;3.72;;;25.00;62.60;;;;;;5013951;28;20434;-69
2022/08/26 05:43:25;;;;;;;3.80;2.97;;;25.00;62.60;;;;;;5013887;28;20125;-69
2022/08/26 05:45:50;;;;;;;3.90;3.40;;;25.00;62.60;;;;;;5031761;28;20029;-69
2022/08/26 05:48:19;;;;;;;3.85;3.53;;;25.00;62.60;;;;;;5031872;28;20429;-69
2022/08/26 05:50:49;;;;;;;4.20;3.80;;;25.00;62.60;;;;;;5030165;28;20041;-69
2022/08/26 05:53:19;;;;;;;3.33;3.03;;;25.00;62.60;;;;;;5013833;28;20037;-69
2022/08/26 05:55:53;;;;;;;3.65;3.35;;;25.00;62.60;;;;;;5030421;28;20117;-69
2022/08/26 05:58:20;;;;;;;3.35;3.05;;;25.00;62.60;;;;;;5013845;28;20225;-69
2022/08/26 06:01:04;;;;;;;3.38;2.90;;;25.00;62.60;;;;;;5013884;28;20041;-69
2022/08/26 06:03:32;;;;;;;3.38;3.08;;;25.00;62.70;;;;;;5013785;28;20116;-69
2022/08/26 06:06:01;;;;;;;3.53;3.22;;;25.00;62.60;;;;;;5015950;28;20056;-69
2022/08/26 06:08:27;;;;;;;4.15;3.08;;;25.00;62.70;;;;;;5035351;28;20505;-69
2022/08/26 06:10:55;;;;;;;3.35;3.05;;;25.00;62.60;;;;;;5037393;28;20354;-69
2022/08/26 06:13:27;;;;;;;3.60;3.30;;;25.00;62.60;;;;;;5037165;28;20037;-69
2022/08/26 06:15:55;;;;;;;3.65;2.65;;;25.00;62.60;;;;;;5055024;28;20060;-70
2022/08/26 06:18:29;;;;;;;4.20;3.28;;;25.00;62.60;;;;;;5037006;28;20436;-69
2022/08/26 06:20:55;;;;;;;4.30;3.35;;;25.00;62.60;;;;;;5036612;28;20052;-70
2022/08/26 06:26:06;;;;;;;4.22;3.53;;;25.00;62.70;;;;;;5036702;28;20049;-69
2022/08/26 06:28:32;;;;;;;4.72;3.88;;;25.00;62.60;;;;;;5037054;28;20053;-69
2022/08/26 06:30:58;;;;;;;4.03;3.17;;;25.00;62.60;;;;;;5037055;28;20045;-70
2022/08/26 06:33:26;;;;;;;3.50;3.00;;;25.00;62.60;;;;;;5054633;28;20045;-69
2022/08/26 06:35:52;;;;;;;3.42;3.08;;;25.00;62.60;;;;;;5036725;28;20049;-69
2022/08/26 06:38:18;;;;;;;3.25;2.95;;;25.00;62.60;;;;;;5036633;28;20049;-69
2022/08/26 06:40:47;;;;;;;4.00;3.13;;;25.00;62.60;;;;;;5036755;28;20040;-69
2022/08/26 06:43:14;;;;;;;3.20;3.00;;;25.00;62.60;;;;;;5036834;28;20064;-69
2022/08/26 06:45:40;;;;;;;3.47;3.00;;;25.00;62.60;;;;;;5036556;28;20044;-70
2022/08/26 06:48:06;;;;;;;3.03;2.72;;;25.00;62.60;;;;;;5034603;28;20033;-69
2022/08/26 06:50:33;;;;;;;3.70;3.13;;;25.00;62.60;;;;;;5036095;28;20374;-69
2022/08/26 06:52:59;;;;;;;3.33;2.85;;;24.90;62.50;;;;;;5052299;28;20041;-69
2022/08/26 06:55:24;;;;;;;3.08;2.85;;;24.90;62.50;;;;;;5031388;28;20068;-69
2022/08/26 06:57:50;;;;;;;3.30;3.00;;;25.00;62.50;;;;;;5034838;28;20522;-69
2022/08/26 07:00:17;;;;;;;2.95;2.75;;;25.00;62.50;;;;;;5032528;28;20033;-69
2022/08/26 07:02:42;;;;;;;3.00;2.63;;;25.00;62.60;;;;;;5018939;28;20053;-69
2022/08/26 07:05:08;;;;;;;3.17;2.80;;;25.00;62.60;;;;;;5029230;28;20029;-69
2022/08/26 07:07:34;;;;;;;3.53;3.22;;;24.90;62.50;;;;;;5026822;28;20397;-69
2022/08/26 07:09:59;;;;;;;4.13;3.22;;;24.90;62.60;;;;;;5043872;28;20037;-69
2022/08/26 07:12:25;;;;;;;2.67;2.47;;;25.00;62.60;;;;;;5029903;28;20053;-69
2022/08/26 07:14:51;;;;;;;3.15;2.38;;;24.90;62.60;;;;;;5030546;28;20064;-69
2022/08/26 07:17:17;;;;;;;2.80;2.60;;;24.90;62.50;;;;;;5027334;28;20382;-70
2022/08/26 07:19:43;;;;;;;3.45;3.03;;;24.90;62.60;;;;;;5036858;28;20099;-69
2022/08/26 07:22:09;;;;;;;3.50;2.88;;;24.90;62.60;;;;;;5010073;28;20050;-69
2022/08/26 07:24:39;;;;;;;2.88;2.67;;;24.90;62.50;;;;;;5008394;28;20095;-69
2022/08/26 07:27:07;;;;;;;2.97;2.78;;;25.00;62.60;;;;;;5006269;28;20057;-69
2022/08/26 07:29:35;;;;;;;3.78;3.20;;;25.00;62.60;;;;;;5006499;28;20034;-69
2022/08/26 07:32:01;;;;;;;3.22;2.88;;;25.00;62.60;;;;;;5005716;28;20350;-69
2022/08/26 07:34:28;;;;;;;3.10;2.80;;;25.00;62.60;;;;;;5005684;28;20049;-69
2022/08/26 07:36:55;;;;;;;3.80;2.72;;;24.90;62.60;;;;;;5003195;28;20061;-69
2022/08/26 07:39:22;;;;;;;3.47;2.95;;;24.90;62.60;;;;;;5005452;28;20278;-69
2022/08/26 07:41:47;;;;;;;2.40;2.20;;;24.90;62.60;;;;;;5004550;28;20448;-69
2022/08/26 07:44:14;;;;;;;3.22;2.58;;;24.90;62.60;;;;;;5006085;28;20025;-69
2022/08/26 07:46:40;;;;;;;3.10;2.47;;;24.90;62.60;;;;;;5015760;28;20069;-69
2022/08/26 07:49:06;;;;;;;3.08;2.38;;;24.90;62.60;;;;;;5014001;28;20045;-69
2022/08/26 07:51:32;;;;;;;3.63;2.67;;;24.90;62.60;;;;;;5004037;28;20128;-69
2022/08/26 07:53:58;;;;;;;2.58;2.38;;;24.90;62.60;;;;;;5016021;28;20041;-69
2022/08/26 07:56:24;;;;;;;2.35;2.10;;;24.90;62.60;;;;;;5000508;28;20041;-69
2022/08/26 07:58:51;;;;;;;3.00;2.70;;;24.90;62.60;;;;;;5004408;28;20038;-69
2022/08/26 08:01:19;;;;;;;2.40;2.20;;;24.90;62.60;;;;;;5009627;28;20402;-69
2022/08/26 08:03:44;;;;;;;4.40;2.85;;;24.90;62.70;;;;;;5004059;28;20580;-70
2022/08/26 08:06:10;;;;;;;2.40;2.13;;;24.90;62.60;;;;;;5001279;28;20125;-69
2022/08/26 08:08:36;;;;;;;2.80;2.10;;;24.90;62.70;;;;;;5004270;28;20081;-69
2022/08/26 08:11:02;;;;;;;2.55;2.30;;;24.90;62.70;;;;;;5013726;28;20038;-69
2022/08/26 08:13:28;;;;;;;3.13;2.53;;;24.90;62.70;;;;;;5004594;28;20041;-69
2022/08/26 08:15:54;;;;;;;2.85;2.15;;;24.90;62.70;;;;;;5007438;28;20041;-69
2022/08/26 08:18:19;;;;;;;2.78;2.35;;;24.90;62.70;;;;;;5006288;28;20374;-69
2022/08/26 08:20:46;;;;;;;3.05;2.65;;;25.00;62.70;;;;;;5006604;28;20033;-69
2022/08/26 08:23:15;;;;;;;2.65;2.20;;;24.90;62.70;;;;;;5021276;28;20045;-69
2022/08/26 08:25:40;;;;;;;3.88;2.50;;;24.90;62.70;;;;;;5031205;28;20107;-69
2022/08/26 08:28:09;;;;;;;1.98;1.70;;;24.90;62.70;;;;;;5033224;28;20186;-69
2022/08/26 08:30:37;;;;;;;2.65;1.83;;;24.90;62.70;;;;;;5024671;28;20128;-69
2022/08/26 08:33:03;;;;;;;2.40;2.20;;;24.90;62.70;;;;;;5025330;28;20405;-69
2022/08/26 08:35:29;;;;;;;2.10;1.80;;;24.90;62.70;;;;;;5024738;28;20052;-69
2022/08/26 08:37:55;;;;;;;2.33;1.90;;;24.90;62.70;;;;;;5023043;28;20514;-69
2022/08/26 08:40:24;;;;;;;2.60;2.33;;;24.90;62.70;;;;;;5024310;28;20475;-69
2022/08/26 08:45:39;;;;;;;4.15;2.45;;;24.90;62.70;;;;;;5063213;27;20460;-67
2022/08/26 08:50:52;;;;;;;3.30;1.20;;;24.90;62.90;;;;;;5108701;27;20408;-69
2022/08/26 08:53:23;;;;;;;2.63;1.10;;;24.90;63.00;;;;;;5103770;28;20089;-70
2022/08/26 09:06:39;;;;;;;3.63;0.90;;;25.00;63.10;;;;;;5068254;27;20385;-66
2022/08/26 09:09:06;;;;;;;2.70;1.13;;;25.20;64.10;;;;;;5074978;28;20088;-67
2022/08/26 09:11:35;;;;;;;2.65;1.00;;;25.30;63.40;;;;;;5064257;28;20083;-67
2022/08/26 09:14:00;;;;;;;5.47;1.17;;;25.30;63.40;;;;;;5061716;28;20124;-68
2022/08/26 09:16:38;;;;;;;4.65;1.00;;;25.30;63.30;;;;;;5061003;28;20120;-67
2022/08/26 09:19:15;;;;;;;6.28;1.00;;;25.30;63.40;;;;;;5065314;28;20086;-68
2022/08/26 09:21:41;;;;;;;7.63;1.58;;;25.30;63.30;;;;;;5061441;28;20044;-68
2022/08/26 09:24:07;;;;;;;8.82;1.55;;;25.40;63.30;;;;;;5057853;28;20538;-70
2022/08/26 09:32:22;;;;;;;13.10;1.60;;;25.40;63.30;;;;;;5078172;28;20421;-69
2022/08/26 09:43:18;;;;;;;8.73;1.67;;;25.40;63.30;;;;;;5136845;27;20114;-67
2022/08/26 09:45:53;;;;;;;6.85;1.13;;;25.30;63.10;;;;;;5121466;28;20043;-67
2022/08/26 09:48:36;;;;;;;4.18;1.42;;;25.30;63.10;;;;;;5120844;28;20394;-69
2022/08/26 09:51:22;;;;;;;9.25;1.20;;;25.30;63.10;;;;;;5127468;28;20038;-70
2022/08/26 09:56:34;;;;;;;7.32;1.30;;;25.30;62.90;;;;;;5120466;27;20403;-71
2022/08/26 09:59:00;;;;;;;5.85;0.75;;;25.30;62.90;;;;;;5102421;28;20085;-72
2022/08/26 10:01:42;;;;;;;5.97;0.85;;;25.30;62.90;;;;;;5104424;28;20043;-71
2022/08/26 10:04:19;;;;;;;3.40;0.57;;;25.40;62.90;;;;;;5100465;28;20071;-73
2022/08/26 10:07:06;;;;;;;3.63;0.40;;;25.40;62.90;;;;;;5117388;28;20024;-70
2022/08/26 10:09:37;;;;;;;2.90;0.65;;;25.40;62.90;;;;;;5099772;28;20024;-73
2022/08/26 10:12:08;;;;;;;3.45;0.60;;;25.40;62.90;;;;;;5098883;28;20033;-70
2022/08/26 10:14:55;;;;;;;2.75;0.50;;;25.40;62.90;;;;;;5101575;28;20074;-70
2022/08/26 10:17:36;;;;;;;2.92;0.45;;;25.40;63.10;;;;;;5118173;28;20063;-71
2022/08/26 10:25:32;;;;;;;4.38;0.50;;;25.40;63.00;;;;;;5119865;27;20361;-70
2022/08/26 10:28:37;;;;;;;4.07;0.60;;;25.40;62.80;;;;;;5093522;28;20036;-70
2022/08/26 10:33:46;;;;;;;1.70;0.30;;;25.40;62.60;;;;;;5121196;27;20351;-70
2022/08/26 10:36:48;;;;;;;3.03;0.50;;;25.40;62.60;;;;;;5133744;27;20092;-70
2022/08/26 10:39:06;;;;;;;1.90;0.38;;;25.40;62.50;;;;;;5118446;27;20052;-70
2022/08/26 10:41:38;;;;;;;1.20;0.30;;;25.40;62.50;;;;;;5118896;28;20488;-70
2022/08/26 10:44:07;;;;;;;1.05;0.20;;;25.40;62.40;;;;;;5113865;28;20118;-70
2022/08/26 10:46:46;;;;;;;1.13;0.20;;;25.40;62.30;;;;;;5107734;28;20082;-70
2022/08/26 10:49:14;;;;;;;0.70;0.30;;;25.30;62.20;;;;;;5118197;28;20047;-70
2022/08/26 10:51:51;;;;;;;1.13;0.25;;;25.30;62.20;;;;;;5116190;27;20395;-70
2022/08/26 10:54:36;;;;;;;1.25;0.20;;;25.30;62.10;;;;;;5117565;28;20082;-71
2022/08/26 11:01:40;;;;;;;1.45;0.20;;;25.30;62.00;;;;;;5121297;27;20351;-70
2022/08/26 11:03:02;;;;;;;1.05;0.20;;;25.30;61.90;;;;;;5105893;28;20063;-70
2022/08/26 11:05:28;;;;;;;1.27;0.20;;;25.30;61.90;;;;;;5098780;28;20040;-70
2022/08/26 11:10:59;;;;;;;1.27;0.30;;;25.30;61.80;;;;;;5120725;27;20759;-70
2022/08/26 11:14:01;;;;;;;1.98;0.52;;;25.30;61.80;;;;;;5094397;28;20032;-71
2022/08/26 11:16:36;;;;;;;1.17;0.20;;;25.30;61.80;;;;;;5104394;28;20085;-72
2022/08/26 11:19:03;;;;;;;2.72;0.30;;;25.30;61.80;;;;;;5104646;28;20044;-70
2022/08/26 11:21:51;;;;;;;2.05;0.30;;;25.30;61.90;;;;;;5124276;27;20043;-71
2022/08/26 11:32:57;;;;;;;1.65;0.20;;;25.40;62.00;;;;;;5075268;28;20414;-70
2022/08/26 11:38:14;;;;;;;1.70;0.20;;;25.40;62.00;;;;;;5119358;27;20353;-71
2022/08/26 11:40:40;;;;;;;2.55;0.25;;;25.40;61.90;;;;;;5119363;28;20046;-71
2022/08/26 11:43:24;;;;;;;3.30;0.22;;;25.40;61.80;;;;;;5117753;28;20032;-71
2022/08/26 11:48:40;;;;;;;4.25;0.30;;;25.40;61.70;;;;;;5073414;28;20365;-71
2022/08/26 11:51:10;;;;;;;1.80;0.20;;;25.40;61.80;;;;;;5052609;28;20056;-71
2022/08/26 11:53:39;;;;;;;1.25;0.20;;;25.40;61.70;;;;;;5042133;28;20049;-72
2022/08/26 11:56:10;;;;;;;4.77;0.20;;;25.40;61.70;;;;;;5050839;28;20458;-72
2022/08/26 11:58:41;;;;;;;3.47;0.30;;;25.40;62.50;;;;;;5070329;28;20140;-69
2022/08/26 12:01:08;;;;;;;3.75;0.20;;;25.40;61.80;;;;;;5054198;28;20203;-70
2022/08/26 12:09:12;;;;;;;3.95;0.60;;;25.40;61.90;;;;;;5130007;27;20402;-70
2022/08/26 12:11:38;;;;;;;4.30;0.47;;;25.40;61.90;;;;;;5129105;27;20058;-70
2022/08/26 12:16:44;;;;;;;2.40;0.20;;;25.40;61.90;;;;;;5130372;27;20412;-70
2022/08/26 12:19:31;;;;;;;1.15;0.25;;;25.40;62.00;;;;;;5146153;27;20039;-71
2022/08/26 12:24:46;;;;;;;1.17;0.10;;;25.40;62.10;;;;;;5129869;27;20380;-71
2022/08/26 12:32:49;;;;;;;1.60;0.20;;;25.40;62.30;;;;;;5077352;28;20769;-71
2022/08/26 12:35:17;;;;;;;2.92;0.20;;;25.40;62.30;;;;;;5079293;28;20442;-72
2022/08/26 12:37:47;;;;;;;0.93;0.17;;;25.40;62.30;;;;;;5076537;28;20051;-71
2022/08/26 12:43:35;;;;;;;3.58;0.20;;;25.40;62.40;;;;;;5088881;28;20680;-73
2022/08/26 12:46:03;;;;;;;3.97;0.25;;;25.40;62.30;;;;;;5083848;28;20037;-72
2022/08/26 12:48:32;;;;;;;5.25;0.30;;;25.40;62.30;;;;;;5087366;28;20040;-72
2022/08/26 12:50:58;;;;;;;3.45;0.22;;;25.40;62.30;;;;;;5096203;28;20465;-71
2022/08/26 12:53:28;;;;;;;5.85;0.30;;;25.40;62.30;;;;;;5087665;28;20035;-72
2022/08/26 12:55:57;;;;;;;4.95;0.40;;;25.40;62.30;;;;;;5087196;28;20079;-72
2022/08/26 12:58:34;;;;;;;6.95;0.20;;;25.40;62.30;;;;;;5087594;28;20071;-71
2022/08/26 13:03:44;;;;;;;5.45;0.30;;;25.40;62.30;;;;;;5127962;27;20882;-73
2022/08/26 13:06:15;;;;;;;2.03;0.20;;;25.40;62.50;;;;;;5125480;28;20442;-74
2022/08/26 13:08:44;;;;;;;3.35;0.20;;;25.40;62.60;;;;;;5107931;28;20047;-74
2022/08/26 13:14:12;;;;;;;2.90;0.23;;;25.40;62.70;;;;;;5152526;27;1173183;-72
2022/08/26 13:16:40;;;;;;;1.05;0.10;;;25.40;62.70;;;;;;5158435;27;20038;-72
2022/08/26 13:19:10;;;;;;;0.82;0.20;;;25.40;62.70;;;;;;5152959;27;20038;-73
2022/08/26 13:21:42;;;;;;;2.60;0.20;;;25.40;62.80;;;;;;5156908;27;20062;-72
2022/08/26 13:24:11;;;;;;;4.75;0.20;;;25.40;62.80;;;;;;5163691;27;20048;-72
2022/08/26 13:26:43;;;;;;;1.90;0.32;;;25.40;62.80;;;;;;5173786;27;20070;-71
2022/08/26 13:29:10;;;;;;;6.63;0.35;;;25.40;62.80;;;;;;5154922;27;20042;-70
2022/08/26 13:31:40;;;;;;;5.95;0.40;;;25.40;62.80;;;;;;5172372;27;20082;-71
2022/08/26 13:34:08;;;;;;;2.13;0.75;;;25.40;62.80;;;;;;5172766;27;20382;-70
2022/08/26 13:36:34;;;;;;;4.50;0.22;;;25.40;62.80;;;;;;5173819;27;20050;-70
2022/08/26 13:39:00;;;;;;;3.00;0.20;;;25.30;62.70;;;;;;5173562;27;20042;-70
2022/08/26 13:41:25;;;;;;;2.40;0.28;;;25.30;62.80;;;;;;5173456;27;20117;-71
2022/08/26 13:43:51;;;;;;;3.38;0.38;;;25.30;62.70;;;;;;5173509;27;20041;-70
2022/08/26 13:46:18;;;;;;;3.78;0.20;;;25.30;62.70;;;;;;5173642;27;20042;-70
2022/08/26 13:48:44;;;;;;;3.17;0.20;;;25.30;62.70;;;;;;5192427;27;20038;-70
2022/08/26 13:51:10;;;;;;;5.00;0.20;;;25.20;62.60;;;;;;5173275;27;20031;-70
2022/08/26 13:53:36;;;;;;;2.63;0.22;;;25.20;62.70;;;;;;5173258;27;20030;-70
2022/08/26 13:56:02;;;;;;;4.05;0.15;;;25.20;62.70;;;;;;5173103;27;20405;-70
2022/08/26 13:58:28;;;;;;;1.50;0.10;;;25.20;62.70;;;;;;5173421;27;20323;-69
2022/08/26 14:00:55;;;;;;;3.08;0.25;;;25.20;62.70;;;;;;5172945;27;20062;-70
2022/08/26 14:03:21;;;;;;;2.72;0.20;;;25.20;62.70;;;;;;5170763;27;20050;-70
2022/08/26 14:05:46;;;;;;;4.78;0.28;;;25.20;62.80;;;;;;5137650;27;20042;-70
2022/08/26 14:08:12;;;;;;;3.38;0.10;;;25.20;62.90;;;;;;5157479;27;20113;-71
2022/08/26 14:10:38;;;;;;;3.38;0.30;;;25.20;62.90;;;;;;5171861;27;20037;-70
2022/08/26 14:13:03;;;;;;;3.47;0.20;;;25.20;62.90;;;;;;5166941;27;20142;-71
2022/08/26 14:15:33;;;;;;;3.50;0.17;;;25.20;63.00;;;;;;5169651;27;20041;-69
2022/08/26 14:18:02;;;;;;;5.25;0.20;;;25.20;63.00;;;;;;5156552;27;20035;-70
2022/08/26 14:20:30;;;;;;;4.03;0.20;;;25.20;63.70;;;;;;5131184;27;20043;-71
2022/08/26 14:22:55;;;;;;;3.72;0.20;;;25.20;62.90;;;;;;5144669;27;20058;-70
2022/08/26 14:25:21;;;;;;;1.90;0.10;;;25.20;62.90;;;;;;5175722;27;20042;-70